Time;durP1;ratioP1;P1;durP2;ratioP2;P2;SDS_P1;SDS_P2;PMS_P1;PMS_P2;Temp;Humidity;BMP_temperature;BMP_pressure;BME280_temperature;BME280_humidity;BME280_pressure;Samples;Min_cycle;Max_cycle;Signal;HPM_P1;HPM_P2
2024/01/13 00:00:13;;;;;;;52.80;23.80;;;;;;;-1.03;100.00;97990.66;5135985;27;20042;-73
2024/01/13 00:02:38;;;;;;;69.30;27.75;;;;;;;-1.01;100.00;97988.88;5154580;27;20378;-73
2024/01/13 00:05:05;;;;;;;120.65;44.47;;;;;;;-0.91;100.00;97987.91;5154335;27;20030;-72
2024/01/13 00:07:30;;;;;;;87.53;33.60;;;;;;;-0.94;100.00;97980.06;5135855;27;20019;-72
2024/01/13 00:09:56;;;;;;;90.95;34.30;;;;;;;-0.87;100.00;97979.13;5153062;27;20121;-72
2024/01/13 00:12:21;;;;;;;82.07;31.27;;;;;;;-0.91;100.00;97980.03;5154721;27;20417;-72
2024/01/13 00:14:47;;;;;;;80.80;30.40;;;;;;;-0.86;100.00;97970.34;5154398;27;20058;-72
2024/01/13 00:17:13;;;;;;;68.85;27.60;;;;;;;-0.88;100.00;97972.13;5153964;27;20030;-72
2024/01/13 00:19:38;;;;;;;77.47;28.00;;;;;;;-0.84;100.00;97968.59;5135485;27;20026;-73
2024/01/13 00:22:04;;;;;;;70.72;29.30;;;;;;;-0.80;100.00;97965.03;5135388;27;20057;-73
2024/01/13 00:24:29;;;;;;;71.53;28.13;;;;;;;-0.81;100.00;97973.81;5154142;27;20057;-72
2024/01/13 00:26:55;;;;;;;60.67;23.15;;;;;;;-0.76;100.00;97977.25;5135367;27;20019;-73
2024/01/13 00:29:21;;;;;;;76.75;28.08;;;;;;;-0.72;100.00;97967.56;5135617;27;20421;-72
2024/01/13 00:31:46;;;;;;;74.07;27.65;;;;;;;-0.79;100.00;97966.78;5135489;27;20062;-72
2024/01/13 00:34:12;;;;;;;71.72;28.55;;;;;;;-0.79;100.00;97974.66;5153675;27;20022;-72
2024/01/13 00:36:37;;;;;;;91.93;35.33;;;;;;;-0.72;100.00;97971.09;5140859;27;20520;-72
2024/01/13 00:39:03;;;;;;;87.53;33.35;;;;;;;-0.65;100.00;97972.75;5152304;27;20508;-72
2024/01/13 00:41:29;;;;;;;71.15;29.00;;;;;;;-0.70;100.00;97961.41;5152680;27;20023;-71
2024/01/13 00:43:54;;;;;;;69.32;29.30;;;;;;;-0.68;100.00;97970.13;5153409;27;20087;-71
2024/01/13 00:46:20;;;;;;;80.43;30.55;;;;;;;-0.61;100.00;97970.94;5152288;27;20027;-71
2024/01/13 00:48:45;;;;;;;77.32;30.70;;;;;;;-0.74;100.00;97964.94;5134896;27;20018;-72
2024/01/13 00:51:11;;;;;;;71.28;29.42;;;;;;;-0.72;100.00;97972.84;5152148;27;20447;-72
2024/01/13 00:53:37;;;;;;;64.45;27.95;;;;;;;-0.71;100.00;97978.06;5153680;27;20107;-72
2024/01/13 00:56:12;;;;;;;73.80;29.52;;;;;;;-0.78;100.00;97963.28;5151924;27;20188;-72
2024/01/13 00:58:39;;;;;;;76.78;32.28;;;;;;;-0.84;100.00;97971.22;5134831;27;20030;-72
2024/01/13 01:01:04;;;;;;;76.07;30.52;;;;;;;-0.82;100.00;97972.06;5142920;27;20049;-72
2024/01/13 01:03:30;;;;;;;83.00;30.90;;;;;;;-0.85;100.00;97969.47;5104300;27;20378;-72
2024/01/13 01:05:56;;;;;;;87.13;32.22;;;;;;;-0.89;100.00;97973.00;5153472;27;20029;-71
2024/01/13 01:08:21;;;;;;;79.20;32.10;;;;;;;-1.05;100.00;97960.94;5117282;27;20482;-72
2024/01/13 01:10:47;;;;;;;84.53;32.95;;;;;;;-1.13;100.00;97965.38;5153073;27;20046;-72
2024/01/13 01:13:13;;;;;;;81.40;32.97;;;;;;;-1.25;100.00;97961.09;5153248;27;20033;-73
2024/01/13 01:15:38;;;;;;;75.68;31.67;;;;;;;-1.34;100.00;97965.56;5153019;27;20098;-73
2024/01/13 01:18:04;;;;;;;74.57;30.95;;;;;;;-1.40;100.00;97966.50;5151534;27;20078;-72
2024/01/13 01:20:30;;;;;;;80.05;31.10;;;;;;;-1.43;100.00;97960.38;5151891;27;20072;-72
2024/01/13 01:22:56;;;;;;;64.90;26.40;;;;;;;-1.40;100.00;97966.50;5151807;27;20019;-72
2024/01/13 01:25:21;;;;;;;54.97;22.65;;;;;;;-1.52;100.00;97957.84;5134052;27;20106;-72
2024/01/13 01:27:47;;;;;;;49.17;18.92;;;;;;;-1.60;100.00;97943.94;5152842;27;20064;-72
2024/01/13 01:30:12;;;;;;;47.38;17.38;;;;;;;-1.72;100.00;97931.75;5133937;27;20076;-71
2024/01/13 01:32:38;;;;;;;41.40;17.63;;;;;;;-1.71;100.00;97931.78;5152668;27;20018;-71
2024/01/13 01:35:06;;;;;;;53.20;20.15;;;;;;;-1.80;100.00;97923.09;5151634;27;20072;-72
2024/01/13 01:37:34;;;;;;;55.08;19.67;;;;;;;-1.96;100.00;97917.09;5134232;27;20091;-72
2024/01/13 01:40:00;;;;;;;54.90;20.50;;;;;;;-1.92;100.00;97931.06;5151591;27;20033;-72
2024/01/13 01:42:26;;;;;;;50.90;19.63;;;;;;;-1.99;100.00;97927.59;5151249;27;20061;-72
2024/01/13 01:44:52;;;;;;;51.78;19.23;;;;;;;-2.03;100.00;97931.13;5152472;27;20065;-71
2024/01/13 01:47:19;;;;;;;48.10;20.02;;;;;;;-2.08;100.00;97922.41;5133652;27;20514;-72
2024/01/13 01:49:46;;;;;;;51.75;17.92;;;;;;;-2.10;100.00;97918.94;5116950;27;20121;-72
2024/01/13 01:52:13;;;;;;;50.17;18.15;;;;;;;-2.19;100.00;97932.13;5133794;27;20550;-72
2024/01/13 01:54:38;;;;;;;46.03;18.35;;;;;;;-2.25;100.00;97929.53;5133366;27;20123;-72
2024/01/13 01:57:04;;;;;;;56.70;19.52;;;;;;;-2.30;100.00;97932.16;5140608;27;20072;-72
2024/01/13 01:59:31;;;;;;;49.05;19.88;;;;;;;-2.27;100.00;97928.66;5150847;27;20035;-71
2024/01/13 02:01:57;;;;;;;39.55;14.93;;;;;;;-2.34;100.00;97917.31;5133490;27;20065;-72
2024/01/13 02:04:22;;;;;;;35.25;13.30;;;;;;;-2.39;100.00;97906.00;5150989;27;20034;-72
2024/01/13 02:06:48;;;;;;;30.88;11.75;;;;;;;-2.47;100.00;97888.63;5152229;27;20018;-72
2024/01/13 02:09:14;;;;;;;30.38;11.27;;;;;;;-2.41;100.00;97897.31;5150960;27;20493;-73
2024/01/13 02:11:39;;;;;;;27.05;10.95;;;;;;;-2.36;100.00;97899.88;5150688;27;20097;-72
2024/01/13 02:14:06;;;;;;;27.48;10.23;;;;;;;-2.35;100.00;97886.81;5150695;27;20083;-72
2024/01/13 02:16:32;;;;;;;35.53;12.48;;;;;;;-2.38;100.00;97881.59;5150724;27;20030;-74
2024/01/13 02:18:57;;;;;;;29.70;12.20;;;;;;;-2.31;100.00;97887.66;5145646;27;20030;-72
2024/01/13 02:21:23;;;;;;;32.30;12.25;;;;;;;-2.33;100.00;97892.00;5133248;27;20034;-72
2024/01/13 02:23:48;;;;;;;31.55;12.73;;;;;;;-2.32;100.00;97897.25;5116425;27;20023;-72
2024/01/13 02:26:14;;;;;;;31.05;12.13;;;;;;;-2.27;100.00;97912.94;5133421;27;20449;-72
2024/01/13 02:28:40;;;;;;;35.42;12.48;;;;;;;-2.35;100.00;97904.25;5151883;27;20026;-73
2024/01/13 02:31:05;;;;;;;29.92;11.77;;;;;;;-2.35;100.00;97907.75;5116390;27;20038;-72
2024/01/13 02:33:31;;;;;;;27.98;11.07;;;;;;;-2.46;100.00;97903.47;5151950;27;20071;-72
2024/01/13 02:35:57;;;;;;;32.28;12.82;;;;;;;-2.48;100.00;97905.19;5152005;27;20087;-71
2024/01/13 02:38:22;;;;;;;29.98;12.13;;;;;;;-2.46;100.00;97913.94;5151816;27;20015;-72
2024/01/13 02:40:48;;;;;;;31.80;13.02;;;;;;;-2.44;100.00;97920.91;5150506;27;20071;-71
2024/01/13 02:43:13;;;;;;;30.23;12.45;;;;;;;-2.47;100.00;97928.75;5150480;27;20022;-72
2024/01/13 02:45:39;;;;;;;31.85;13.27;;;;;;;-2.57;100.00;97936.66;5150390;27;20586;-73
2024/01/13 02:48:14;;;;;;;41.88;15.48;;;;;;;-2.61;100.00;97945.38;5150729;27;20098;-72
2024/01/13 02:50:40;;;;;;;46.70;17.85;;;;;;;-2.65;100.00;97946.31;5150481;27;20027;-72
2024/01/13 02:53:05;;;;;;;51.08;19.48;;;;;;;-2.74;100.00;97958.53;5150488;27;20535;-73
2024/01/13 02:55:31;;;;;;;47.53;18.52;;;;;;;-2.76;100.00;97960.28;5150365;27;20591;-72
2024/01/13 02:57:57;;;;;;;38.08;15.98;;;;;;;-2.68;100.00;97975.97;5150468;27;20050;-72
2024/01/13 03:00:22;;;;;;;38.67;15.82;;;;;;;-2.56;100.00;97980.28;5150274;27;20046;-73
2024/01/13 03:02:48;;;;;;;41.33;15.38;;;;;;;-2.52;100.00;97979.41;5133040;27;20046;-73
2024/01/13 03:05:13;;;;;;;43.55;15.60;;;;;;;-2.46;100.00;97987.25;5152343;27;20019;-73
2024/01/13 03:07:39;;;;;;;42.25;15.40;;;;;;;-2.41;100.00;97993.31;5137461;27;20026;-72
2024/01/13 03:10:05;;;;;;;41.58;16.40;;;;;;;-2.43;100.00;97985.47;5154551;27;20029;-72
2024/01/13 03:12:31;;;;;;;42.58;16.52;;;;;;;-2.41;100.00;97991.59;5155244;27;20390;-72
2024/01/13 03:14:56;;;;;;;48.53;17.05;;;;;;;-2.30;100.00;97983.66;5154375;27;20023;-73
2024/01/13 03:17:22;;;;;;;46.75;16.35;;;;;;;-2.29;100.00;97977.56;5136689;27;20088;-72
2024/01/13 03:19:48;;;;;;;40.60;15.88;;;;;;;-2.30;100.00;97978.44;5154334;27;20056;-72
2024/01/13 03:22:13;;;;;;;45.85;16.60;;;;;;;-2.44;100.00;97980.25;5136604;27;20026;-72
2024/01/13 03:24:39;;;;;;;45.33;18.17;;;;;;;-2.47;100.00;97981.13;5136710;27;20014;-72
2024/01/13 03:27:04;;;;;;;46.40;18.25;;;;;;;-2.45;100.00;97968.03;5154106;27;20053;-72
2024/01/13 03:29:30;;;;;;;42.70;17.52;;;;;;;-2.50;100.00;97964.56;5136332;27;20091;-72
2024/01/13 03:31:56;;;;;;;53.75;19.73;;;;;;;-2.56;100.00;97969.81;5136823;27;20553;-73
2024/01/13 03:34:21;;;;;;;50.20;18.20;;;;;;;-2.70;100.00;97967.25;5136469;27;20027;-72
2024/01/13 03:36:47;;;;;;;55.45;19.77;;;;;;;-2.65;100.00;97975.09;5119376;27;20183;-72
2024/01/13 03:39:12;;;;;;;48.45;18.15;;;;;;;-2.80;100.00;97973.41;5136729;27;20018;-72
2024/01/13 03:41:39;;;;;;;51.10;19.35;;;;;;;-2.86;100.00;97987.34;5136494;27;20026;-72
2024/01/13 03:44:04;;;;;;;44.78;17.45;;;;;;;-2.80;100.00;97987.34;5136657;27;20069;-72
2024/01/13 03:46:32;;;;;;;49.45;19.42;;;;;;;-2.74;100.00;97976.00;5136458;27;20054;-71
2024/01/13 03:48:57;;;;;;;49.15;19.40;;;;;;;-2.70;100.00;97982.94;5136350;27;20533;-72
2024/01/13 03:51:23;;;;;;;51.05;20.52;;;;;;;-2.71;100.00;97986.47;5154719;27;20173;-72
2024/01/13 03:53:48;;;;;;;51.15;18.58;;;;;;;-2.70;100.00;97987.31;5153697;27;20030;-72
2024/01/13 03:56:14;;;;;;;44.75;18.10;;;;;;;-2.69;100.00;97989.06;5136249;27;20035;-72
2024/01/13 03:58:40;;;;;;;49.53;18.52;;;;;;;-2.78;100.00;97990.84;5144695;27;20041;-73
2024/01/13 04:01:05;;;;;;;52.10;18.30;;;;;;;-2.77;100.00;97982.09;5154556;27;20108;-71
2024/01/13 04:03:31;;;;;;;51.05;18.55;;;;;;;-2.79;100.00;97981.22;5154475;27;20033;-72
2024/01/13 04:05:58;;;;;;;51.38;19.80;;;;;;;-2.82;100.00;97991.72;5136146;27;20015;-73
2024/01/13 04:08:24;;;;;;;49.35;17.92;;;;;;;-2.85;100.00;97999.56;5135731;27;20049;-73
2024/01/13 04:10:50;;;;;;;47.90;18.85;;;;;;;-2.72;100.00;98012.63;5144530;27;20031;-73
2024/01/13 04:13:17;;;;;;;45.08;17.83;;;;;;;-2.62;100.00;98003.88;5150325;27;20113;-72
2024/01/13 04:15:42;;;;;;;49.08;18.17;;;;;;;-2.59;100.00;98006.50;5134972;27;20046;-72
2024/01/13 04:18:08;;;;;;;57.45;21.17;;;;;;;-2.55;100.00;97998.59;5135354;27;20030;-72
2024/01/13 04:20:34;;;;;;;44.72;19.63;;;;;;;-2.52;100.00;97995.97;5135454;27;20111;-74
2024/01/13 04:22:59;;;;;;;54.40;20.23;;;;;;;-2.46;100.00;97997.72;5135651;27;20022;-72
2024/01/13 04:25:25;;;;;;;47.33;21.23;;;;;;;-2.53;100.00;98001.22;5153889;27;20027;-72
2024/01/13 04:27:52;;;;;;;62.50;24.13;;;;;;;-2.50;100.00;97990.75;5135395;27;20370;-73
2024/01/13 04:30:18;;;;;;;61.75;24.48;;;;;;;-2.53;100.00;97988.13;5118629;27;20490;-73
2024/01/13 04:32:44;;;;;;;58.50;23.42;;;;;;;-2.53;100.00;97991.63;5135364;27;20033;-73
2024/01/13 04:35:11;;;;;;;60.33;23.92;;;;;;;-2.58;100.00;97987.28;5135477;27;20079;-71
2024/01/13 04:37:36;;;;;;;57.58;23.20;;;;;;;-2.61;100.00;98002.97;5153912;27;20421;-73
2024/01/13 04:40:03;;;;;;;65.57;23.77;;;;;;;-2.66;100.00;97991.66;5135462;27;20027;-73
2024/01/13 04:42:31;;;;;;;57.47;23.50;;;;;;;-2.76;100.00;97999.53;5154045;27;20034;-72
2024/01/13 04:44:57;;;;;;;59.55;22.70;;;;;;;-2.79;100.00;97999.56;5153740;27;20030;-72
2024/01/13 04:47:24;;;;;;;64.63;27.35;;;;;;;-2.88;100.00;97999.56;5135496;27;20023;-72
2024/01/13 04:49:49;;;;;;;66.88;27.23;;;;;;;-2.68;100.00;98001.28;5135046;27;20470;-73
2024/01/13 04:52:15;;;;;;;67.70;26.77;;;;;;;-2.71;100.00;98006.53;5152419;27;20102;-72
2024/01/13 04:54:40;;;;;;;75.55;30.10;;;;;;;-2.64;100.00;98008.22;5134893;27;20054;-72
2024/01/13 04:57:06;;;;;;;56.78;23.63;;;;;;;-2.70;100.00;97997.78;5152191;27;20026;-73
2024/01/13 04:59:31;;;;;;;60.35;23.85;;;;;;;-2.68;100.00;98001.28;5152355;27;20055;-72
2024/01/13 05:01:57;;;;;;;60.90;23.75;;;;;;;-2.67;100.00;97995.16;5151794;27;20050;-72
2024/01/13 05:04:23;;;;;;;55.00;23.83;;;;;;;-2.60;100.00;97999.50;5152277;27;20026;-72
2024/01/13 05:06:48;;;;;;;55.38;21.95;;;;;;;-2.62;100.00;97980.31;5153117;27;20383;-73
2024/01/13 05:09:14;;;;;;;76.78;28.10;;;;;;;-2.60;100.00;97968.09;5153376;27;20129;-72
2024/01/13 05:11:40;;;;;;;46.00;18.73;;;;;;;-2.71;100.00;97959.41;5147893;27;20088;-73
2024/01/13 05:14:05;;;;;;;52.40;19.75;;;;;;;-2.70;100.00;97968.97;5151690;27;20060;-73
2024/01/13 05:16:31;;;;;;;41.13;16.40;;;;;;;-2.78;100.00;97956.81;5129054;27;20041;-71
2024/01/13 05:18:57;;;;;;;45.00;17.48;;;;;;;-2.79;100.00;97957.69;5152925;27;20547;-72
2024/01/13 05:21:22;;;;;;;46.08;16.45;;;;;;;-2.78;100.00;97969.03;5151864;27;20081;-73
2024/01/13 05:23:48;;;;;;;51.58;20.20;;;;;;;-2.76;100.00;97955.06;5152851;27;20031;-73
2024/01/13 05:26:13;;;;;;;70.13;27.77;;;;;;;-2.80;100.00;97969.00;5134513;27;20374;-72
2024/01/13 05:28:39;;;;;;;68.00;26.58;;;;;;;-2.86;100.00;97979.50;5120598;27;20117;-72
2024/01/13 05:31:05;;;;;;;67.15;29.55;;;;;;;-2.93;100.00;97979.53;5152407;27;20477;-72
2024/01/13 05:33:30;;;;;;;67.80;26.73;;;;;;;-3.02;100.00;97980.44;5134325;27;20034;-71
2024/01/13 05:35:56;;;;;;;62.60;25.52;;;;;;;-3.04;100.00;97976.91;5133984;27;20030;-72
2024/01/13 05:38:21;;;;;;;86.68;33.42;;;;;;;-3.09;100.00;97965.59;5152787;27;20504;-73
2024/01/13 05:40:48;;;;;;;81.43;33.05;;;;;;;-3.17;100.00;97970.00;5117228;27;20034;-73
2024/01/13 05:43:13;;;;;;;84.25;33.67;;;;;;;-3.16;100.00;97981.31;5134079;27;20033;-73
2024/01/13 05:45:39;;;;;;;85.50;31.73;;;;;;;-3.33;100.00;97976.97;5137679;27;20042;-73
2024/01/13 05:48:05;;;;;;;77.30;30.23;;;;;;;-3.29;100.00;97976.09;5133862;27;20038;-72
2024/01/13 05:50:31;;;;;;;77.40;29.67;;;;;;;-3.50;100.00;97981.31;5149327;27;20037;-72
2024/01/13 05:52:56;;;;;;;87.22;31.52;;;;;;;-3.63;100.00;97991.81;5133956;27;20109;-72
2024/01/13 05:55:22;;;;;;;95.47;33.83;;;;;;;-3.65;100.00;97996.13;5116771;27;20047;-71
2024/01/13 05:57:48;;;;;;;80.43;30.02;;;;;;;-3.71;100.00;97990.91;5152473;27;20031;-73
2024/01/13 06:00:15;;;;;;;70.50;25.77;;;;;;;-3.72;100.00;97994.41;5133595;27;20112;-72
2024/01/13 06:02:43;;;;;;;71.45;28.50;;;;;;;-3.73;100.00;98003.09;5145545;27;20031;-72
2024/01/13 06:05:09;;;;;;;72.63;29.23;;;;;;;-3.75;100.00;97995.25;5133984;27;20058;-72
2024/01/13 06:07:34;;;;;;;102.70;35.28;;;;;;;-3.72;100.00;97997.00;5131632;27;20493;-72
2024/01/13 06:10:00;;;;;;;83.90;30.13;;;;;;;-3.73;100.00;98003.97;5130429;27;20106;-73
2024/01/13 06:12:28;;;;;;;66.18;26.90;;;;;;;-3.63;100.00;97989.19;5151019;27;20027;-72
2024/01/13 06:14:55;;;;;;;103.75;37.17;;;;;;;-3.70;100.00;97977.84;5152369;27;20019;-72
2024/01/13 06:17:20;;;;;;;87.53;29.23;;;;;;;-3.73;100.00;97987.44;5150896;27;20023;-72
2024/01/13 06:19:46;;;;;;;65.78;23.92;;;;;;;-3.64;100.00;97995.28;5151250;27;20394;-72
2024/01/13 06:22:12;;;;;;;66.63;23.00;;;;;;;-3.64;100.00;97985.69;5151911;27;20118;-72
2024/01/13 06:24:38;;;;;;;73.22;30.92;;;;;;;-3.50;100.00;97993.53;5133743;27;20422;-73
2024/01/13 06:27:03;;;;;;;65.20;27.48;;;;;;;-3.49;100.00;97990.03;5133301;27;20019;-73
2024/01/13 06:29:29;;;;;;;65.10;25.85;;;;;;;-3.50;100.00;97989.16;5152032;27;20026;-73
2024/01/13 06:31:54;;;;;;;76.38;25.95;;;;;;;-3.47;100.00;97989.16;5152067;27;20397;-73
2024/01/13 06:34:20;;;;;;;84.63;33.53;;;;;;;-3.42;100.00;97989.19;5116238;27;20141;-73
2024/01/13 06:36:46;;;;;;;71.05;28.92;;;;;;;-3.46;100.00;97992.66;5133612;27;20097;-73
2024/01/13 06:39:11;;;;;;;51.30;22.38;;;;;;;-3.45;100.00;97994.41;5133000;27;20432;-72
2024/01/13 06:41:37;;;;;;;57.03;22.35;;;;;;;-3.43;100.00;98004.00;5136526;27;20034;-72
2024/01/13 06:44:03;;;;;;;60.10;23.48;;;;;;;-3.32;100.00;98004.84;5137640;27;20076;-73
2024/01/13 06:46:28;;;;;;;58.00;21.40;;;;;;;-3.20;100.00;97996.16;5155863;27;20046;-72
2024/01/13 06:48:54;;;;;;;67.40;22.95;;;;;;;-2.99;100.00;98011.81;5137556;27;20026;-72
2024/01/13 06:51:20;;;;;;;48.83;20.60;;;;;;;-2.95;100.00;97989.97;5137517;27;20037;-73
2024/01/13 06:53:45;;;;;;;61.67;23.52;;;;;;;-2.83;100.00;98007.44;5137581;27;20452;-74
2024/01/13 06:56:11;;;;;;;71.75;30.25;;;;;;;-2.68;100.00;98006.50;5137066;27;20023;-71
2024/01/13 06:58:36;;;;;;;65.03;25.08;;;;;;;-2.63;100.00;98017.84;5120089;27;20512;-73
2024/01/13 07:01:02;;;;;;;73.78;27.63;;;;;;;-2.61;100.00;98026.53;5155604;27;20042;-72
2024/01/13 07:03:28;;;;;;;82.43;31.38;;;;;;;-2.77;100.00;98016.09;5155551;27;20022;-71
2024/01/13 07:05:53;;;;;;;93.80;39.22;;;;;;;-2.66;100.00;98029.19;5131571;27;20014;-73
2024/01/13 07:08:19;;;;;;;109.93;42.50;;;;;;;-2.62;100.00;98030.06;5154051;27;20139;-71
2024/01/13 07:10:46;;;;;;;104.72;40.75;;;;;;;-2.46;100.00;98039.63;5154177;27;20022;-72
2024/01/13 07:13:11;;;;;;;108.40;41.92;;;;;;;-2.41;100.00;98028.25;5136796;27;20065;-73
2024/01/13 07:15:37;;;;;;;110.07;44.05;;;;;;;-2.31;100.00;98034.31;5119754;27;20462;-72
2024/01/13 07:18:03;;;;;;;104.75;43.97;;;;;;;-2.21;100.00;98030.78;5145434;27;20054;-72
2024/01/13 07:20:28;;;;;;;111.38;43.90;;;;;;;-2.12;100.00;98025.50;5155074;27;20143;-72
2024/01/13 07:22:54;;;;;;;106.57;43.95;;;;;;;-1.96;100.00;98027.16;5136644;27;20109;-73
2024/01/13 07:25:19;;;;;;;93.45;39.30;;;;;;;-1.79;100.00;98029.72;5153734;27;20032;-72
2024/01/13 07:27:46;;;;;;;106.63;39.92;;;;;;;-1.69;100.00;98021.75;5153986;27;20026;-71
2024/01/13 07:30:12;;;;;;;163.93;56.25;;;;;;;-1.70;100.00;98020.03;5153900;27;20026;-73
2024/01/13 07:32:37;;;;;;;116.82;46.88;;;;;;;-1.66;100.00;98016.50;5136367;27;20026;-72
2024/01/13 07:35:03;;;;;;;98.65;39.72;;;;;;;-1.41;100.00;98013.69;5136090;27;20480;-72
2024/01/13 07:37:29;;;;;;;93.43;37.33;;;;;;;-1.09;100.00;98009.06;5153627;27;20038;-72
2024/01/13 07:39:55;;;;;;;85.85;32.47;;;;;;;-0.84;100.00;98005.34;5136309;27;20482;-73
2024/01/13 07:42:21;;;;;;;78.90;31.75;;;;;;;-0.72;100.00;97994.72;5136528;27;20037;-72
2024/01/13 07:44:46;;;;;;;101.97;42.78;;;;;;;-0.78;100.00;98000.03;5143562;27;20049;-72
2024/01/13 07:47:12;;;;;;;119.60;49.67;;;;;;;-1.04;100.00;97999.41;5128856;27;20367;-72
2024/01/13 07:49:38;;;;;;;94.95;39.13;;;;;;;-1.00;100.00;98002.88;5130697;27;20039;-79
2024/01/13 07:52:04;;;;;;;96.50;40.80;;;;;;;-0.79;100.00;98000.03;5138054;27;20106;-81
2024/01/13 07:54:29;;;;;;;98.72;41.42;;;;;;;-0.69;100.00;97999.06;5143102;27;20038;-79
2024/01/13 07:56:55;;;;;;;111.72;41.85;;;;;;;-0.62;100.00;97991.13;5139582;27;20092;-73
2024/01/13 07:59:22;;;;;;;87.78;38.17;;;;;;;-0.74;100.00;97974.63;5140141;27;20023;-81
2024/01/13 08:01:47;;;;;;;88.78;36.55;;;;;;;-0.84;100.00;97992.22;5123427;27;20565;-81
2024/01/13 08:04:15;;;;;;;85.40;33.72;;;;;;;-0.96;100.00;97994.97;5121435;27;20118;-80
2024/01/13 08:06:41;;;;;;;91.88;33.47;;;;;;;-1.10;100.00;97967.97;5123439;27;20110;-80
2024/01/13 08:09:06;;;;;;;73.97;31.90;;;;;;;-0.99;100.00;97987.13;5128893;27;20106;-80
2024/01/13 08:11:32;;;;;;;69.03;28.55;;;;;;;-1.02;100.00;97989.78;5146216;27;20030;-81
2024/01/13 08:13:58;;;;;;;63.75;26.17;;;;;;;-1.10;100.00;97983.69;5117412;27;20555;-81
2024/01/13 08:16:24;;;;;;;70.18;30.05;;;;;;;-0.91;100.00;97987.91;5134615;27;20038;-81
2024/01/13 08:18:50;;;;;;;64.45;23.15;;;;;;;-0.92;100.00;97983.53;5136898;27;20062;-81
2024/01/13 08:21:15;;;;;;;59.70;23.23;;;;;;;-0.86;100.00;97985.25;5130273;27;20037;-81
2024/01/13 08:23:41;;;;;;;52.13;23.63;;;;;;;-0.60;100.00;97991.06;5124845;27;20023;-80
2024/01/13 08:26:07;;;;;;;61.03;24.27;;;;;;;-0.50;100.00;97989.22;5121191;27;20023;-80
2024/01/13 08:28:33;;;;;;;61.92;22.30;;;;;;;-0.27;100.00;97987.19;5133420;27;20023;-82
2024/01/13 08:31:05;;;;;;;75.93;32.38;;;;;;;-0.10;100.00;97978.22;5129872;27;20514;-82
2024/01/13 08:33:31;;;;;;;69.07;29.00;;;;;;;-0.15;100.00;97960.75;5149281;27;20030;-80
2024/01/13 08:35:56;;;;;;;92.10;35.50;;;;;;;0.01;100.00;97957.03;5153666;27;20472;-82
2024/01/13 08:38:22;;;;;;;58.10;24.50;;;;;;;0.16;100.00;97946.28;5140337;27;20050;-82
2024/01/13 08:40:47;;;;;;;86.85;34.53;;;;;;;0.50;100.00;97942.25;5156771;27;20182;-82
2024/01/13 08:43:13;;;;;;;72.88;30.08;;;;;;;0.92;100.00;97939.81;5125996;27;20035;-83
2024/01/13 08:45:41;;;;;;;69.32;28.27;;;;;;;0.88;100.00;97924.94;5125573;27;20090;-83
2024/01/13 08:48:07;;;;;;;75.45;31.05;;;;;;;1.11;100.00;97914.84;5124465;27;20018;-81
2024/01/13 08:50:33;;;;;;;67.97;28.65;;;;;;;1.51;100.00;97926.34;5135920;27;20030;-82
2024/01/13 08:52:58;;;;;;;64.53;27.67;;;;;;;1.70;100.00;97931.25;5135237;27;20098;-82
2024/01/13 08:55:24;;;;;;;68.85;29.08;;;;;;;1.93;100.00;97944.81;5126955;27;20462;-83
2024/01/13 08:57:50;;;;;;;88.80;37.92;;;;;;;1.96;100.00;97944.75;5135816;27;20474;-83
2024/01/13 09:00:17;;;;;;;95.82;40.20;;;;;;;1.80;100.00;97935.44;5119658;27;20123;-83
2024/01/13 09:03:00;;;;;;;109.20;43.60;;;;;;;1.34;100.00;97938.13;5138316;27;20019;-83
2024/01/13 09:05:50;;;;;;;120.72;46.83;;;;;;;1.56;100.00;97942.97;5124203;27;20058;-81
2024/01/13 09:18:49;;;;;;;117.00;47.28;;;;;;;2.35;100.00;97896.34;5102121;28;20430;-73
2024/01/13 09:21:17;;;;;;;103.88;42.25;;;;;;;2.76;100.00;97882.13;5090724;28;20027;-76
2024/01/13 09:23:43;;;;;;;105.38;45.65;;;;;;;3.52;100.00;97875.63;5090423;28;20039;-77
2024/01/13 09:26:09;;;;;;;99.53;42.83;;;;;;;5.76;87.29;97852.13;5090925;28;20038;-73
2024/01/13 09:28:34;;;;;;;159.32;63.60;;;;;;;7.65;68.81;97830.00;5087470;28;20036;-79
2024/01/13 09:31:00;;;;;;;103.65;47.03;;;;;;;9.03;58.26;97805.44;5073896;28;20050;-74
2024/01/13 09:33:26;;;;;;;90.88;42.67;;;;;;;9.50;54.17;97792.28;5073934;28;20031;-73
2024/01/13 09:35:52;;;;;;;92.35;43.63;;;;;;;9.31;52.95;97790.66;5073537;28;20032;-77
2024/01/13 09:38:18;;;;;;;117.60;53.90;;;;;;;9.86;50.79;97784.06;5108762;28;20487;-73
2024/01/13 09:40:44;;;;;;;92.72;45.35;;;;;;;9.66;50.79;97794.94;5110372;28;20054;-83
2024/01/13 09:43:24;;;;;;;95.40;44.50;;;;;;;10.16;49.84;97778.84;5068886;28;20494;-83
2024/01/13 09:45:50;;;;;;;76.97;37.45;;;;;;;9.84;47.72;97761.91;5075548;28;20116;-83
2024/01/13 09:48:20;;;;;;;59.15;30.80;;;;;;;9.73;47.37;97761.63;5073214;28;20514;-81
2024/01/13 09:50:53;;;;;;;58.72;28.45;;;;;;;9.86;45.65;97752.00;5072405;28;20507;-80
2024/01/13 09:53:28;;;;;;;52.80;26.17;;;;;;;11.29;43.37;97742.59;5074916;28;20059;-81
2024/01/13 09:55:56;;;;;;;52.13;26.00;;;;;;;10.73;43.31;97731.81;5073778;28;20114;-82
2024/01/13 09:58:22;;;;;;;79.00;36.25;;;;;;;11.11;44.37;97738.38;5074292;28;20019;-80
2024/01/13 10:00:49;;;;;;;80.65;38.05;;;;;;;11.76;43.27;97730.75;5072711;28;20589;-79
2024/01/13 10:03:14;;;;;;;64.07;32.35;;;;;;;12.04;41.87;97719.13;5069032;28;20030;-80
2024/01/13 10:05:40;;;;;;;43.22;21.23;;;;;;;12.27;39.63;97699.72;5076260;28;20023;-81
2024/01/13 10:08:06;;;;;;;49.15;25.98;;;;;;;11.14;42.45;97705.19;5089987;28;20051;-83
2024/01/13 10:10:32;;;;;;;21.02;10.68;;;;;;;10.65;40.23;97701.97;5090814;28;20027;-78
2024/01/13 10:12:57;;;;;;;21.33;11.85;;;;;;;9.34;41.31;97710.41;5071670;28;20028;-74
2024/01/13 10:15:23;;;;;;;44.25;17.55;;;;;;;8.11;44.44;97723.03;5112704;28;20031;-73
2024/01/13 10:17:52;;;;;;;37.17;15.70;;;;;;;7.89;47.00;97737.44;5107790;28;20035;-74
2024/01/13 10:20:18;;;;;;;25.42;12.70;;;;;;;7.96;45.86;97722.91;5072761;28;20035;-73
2024/01/13 10:22:44;;;;;;;32.33;13.90;;;;;;;8.28;46.75;97724.88;5089149;28;20035;-75
2024/01/13 10:25:10;;;;;;;29.85;13.68;;;;;;;8.99;44.55;97731.84;5089630;28;20035;-73
2024/01/13 10:27:37;;;;;;;27.10;12.55;;;;;;;9.73;43.79;97722.44;5089467;28;20015;-74
2024/01/13 10:30:06;;;;;;;20.33;9.77;;;;;;;9.80;40.85;97704.25;5090161;28;20039;-74
2024/01/13 10:32:32;;;;;;;26.73;12.63;;;;;;;10.25;40.40;97688.28;5072705;28;20088;-72
2024/01/13 10:34:58;;;;;;;28.40;13.85;;;;;;;10.28;40.50;97696.13;5086252;28;20028;-76
2024/01/13 10:37:25;;;;;;;29.40;14.65;;;;;;;10.63;39.18;97682.47;5071062;28;20038;-72
2024/01/13 10:39:51;;;;;;;31.67;15.35;;;;;;;11.23;39.86;97684.06;5089403;28;20491;-74
2024/01/13 10:42:20;;;;;;;31.50;14.18;;;;;;;10.02;40.78;97690.53;5089392;28;20034;-72
2024/01/13 10:44:58;;;;;;;76.28;34.20;;;;;;;10.17;40.85;97679.84;5089964;28;20025;-73
2024/01/13 10:47:32;;;;;;;29.42;14.98;;;;;;;9.96;41.45;97683.75;5089110;28;20032;-75
2024/01/13 10:49:58;;;;;;;29.15;14.27;;;;;;;10.37;40.69;97675.16;5072377;28;20403;-73
2024/01/13 10:52:33;;;;;;;32.67;13.00;;;;;;;10.95;39.97;97677.88;5072325;28;20035;-73
2024/01/13 10:55:03;;;;;;;25.23;12.00;;;;;;;10.75;40.34;97673.72;5071172;28;20024;-76
2024/01/13 10:57:29;;;;;;;20.58;10.80;;;;;;;11.21;38.87;97664.56;5089091;28;20085;-73
2024/01/13 10:59:55;;;;;;;24.45;12.27;;;;;;;11.69;38.51;97667.78;5107735;28;20066;-73
2024/01/13 11:02:20;;;;;;;21.92;11.60;;;;;;;10.43;38.86;97653.41;5107090;28;20055;-74
2024/01/13 11:04:47;;;;;;;49.92;24.38;;;;;;;10.33;40.37;97659.31;5086120;28;20126;-73
2024/01/13 11:07:12;;;;;;;24.73;11.60;;;;;;;10.75;39.43;97661.22;5085675;28;20546;-74
2024/01/13 11:09:38;;;;;;;22.67;10.82;;;;;;;11.43;37.97;97637.31;5106756;28;20107;-72
2024/01/13 11:12:24;;;;;;;26.40;12.25;;;;;;;11.92;37.14;97643.06;5087542;28;20118;-73
2024/01/13 11:15:32;;;;;;;22.83;10.77;;;;;;;11.82;37.18;97641.94;5089453;28;20088;-74
2024/01/13 11:18:02;;;;;;;20.65;10.63;;;;;;;12.77;35.93;97645.28;5101886;28;20039;-72